Información del aeropuerto GCXO

Información de pista
Pista 12 Longitud 11155 ft Anchura 148 ft
Elevación 2060 ft Umbral 0 ft Rumbo 111
Pista 30 Longitud 11155 ft Anchura 148 ft
Elevación 2002 ft Umbral 0 ft Rumbo 291
Frecuencias del aeropuerto
Tipo APP Nombre APP Frecuencia 119.7 MHZ
Tipo ATIS Nombre ATIS Frecuencia 118.575 MHZ
Tipo GND Nombre GND Frecuencia 121.7 MHZ
Tipo TWR Nombre TWR Frecuencia 118.7 MHZ
Radioayudas del aeropuerto
Tipo VOR-DME Nombre Tenerife Norte Frecuencia 117700 KHZ
Tipo NDB Nombre Tenerife Norte Frecuencia 410 KHZ
Información meteorológica del aeropuerto y NOTAM
ADDS - METARS form results

(0419 UTC 22 September 2021)
Data provider http://aviationweather.gov/metar/data/
 
METAR text: GCXO 220400Z AUTO 31012KT CAVOK 17/14 Q1018
Conditions at: GCXO (TENERIFE/LOS ROD, ES) observed 0400 UTC 22 September 2021
Temperature: 17.0°C (63°F)
Dewpoint: 14.0°C (57°F) [RH = 82%]
Pressure (altimeter): 30.06 inches Hg (1018.0 mb)
Winds: from the NW (310 degrees) at 14 MPH (12 knots; 6.2 m/s)
Visibility: 6 or more miles (10+ km)
Ceiling: ceiling and visibility are OK
Clouds: unknown
Weather: no significant weather observed at this time

METAR text: GCXO 220330Z AUTO 31011KT 9999 FEW012 BKN025 17/14 Q1018
Conditions at: GCXO (TENERIFE/LOS ROD, ES) observed 0330 UTC 22 September 2021
Temperature: 17.0°C (63°F)
Dewpoint: 14.0°C (57°F) [RH = 82%]
Pressure (altimeter): 30.06 inches Hg (1018.0 mb)
Winds: from the NW (310 degrees) at 13 MPH (11 knots; 5.7 m/s)
Visibility: 6 or more miles (10+ km)
Ceiling: 2500 feet AGL
Clouds: few clouds at 1200 feet AGL
broken clouds at 2500 feet AGL
Weather: no significant weather observed at this time

Forecast for: GCXO (TENERIFE/LOS ROD, ES)
Text: TAF GCXO 220200Z 2203/2303 33012KT 9999 SCT020 TX24/2214Z TN18/2206Z
Forecast period: 0300 UTC 22 September 2021 to 0300 UTC 23 September 2021
Forecast type: FROM: standard forecast or significant change
Winds: from the NNW (330 degrees) at 14 MPH (12 knots; 6.2 m/s)
Visibility: 6 or more miles (10+ km)
Ceiling: at least 12,000 feet AGL
Clouds: scattered clouds at 2000 feet AGL
Weather: no significant weather forecast for this period